createdAt,value
2022-12-08T00:00:16.697Z,21
2022-12-08T00:05:16.596Z,21
2022-12-08T00:10:47.263Z,20
2022-12-08T00:15:17.132Z,20
2022-12-08T00:20:17.851Z,20
2022-12-08T00:25:16.765Z,19
2022-12-08T00:30:16.806Z,19
2022-12-08T00:35:16.814Z,18
2022-12-08T00:40:16.805Z,17
2022-12-08T00:45:16.726Z,16
2022-12-08T00:50:16.965Z,15
2022-12-08T00:55:16.886Z,15
2022-12-08T01:00:16.775Z,15
2022-12-08T01:05:17.738Z,14
2022-12-08T01:10:18.011Z,13
2022-12-08T01:15:17.963Z,13
2022-12-08T01:20:18.475Z,12
2022-12-08T01:25:17.934Z,11
2022-12-08T01:30:17.878Z,12
2022-12-08T01:35:17.887Z,11
2022-12-08T01:40:18.141Z,10
2022-12-08T01:45:17.950Z,10
2022-12-08T01:50:17.902Z,9
2022-12-08T01:55:18.179Z,8
2022-12-08T02:00:17.983Z,8
2022-12-08T02:05:18.390Z,9
2022-12-08T02:10:18.194Z,10
2022-12-08T02:15:17.934Z,9
2022-12-08T02:20:18.046Z,8
2022-12-08T02:25:18.266Z,9
2022-12-08T02:30:18.445Z,9
2022-12-08T02:35:18.171Z,8
2022-12-08T02:40:18.268Z,9
2022-12-08T02:45:18.035Z,9
2022-12-08T02:50:18.152Z,7
2022-12-08T02:55:18.270Z,6
2022-12-08T03:00:18.095Z,5
2022-12-08T03:05:18.282Z,5
2022-12-08T03:10:18.353Z,6
2022-12-08T03:15:18.089Z,6
2022-12-08T03:20:18.147Z,6
2022-12-08T03:25:18.187Z,6
2022-12-08T03:30:18.487Z,5
2022-12-08T03:35:16.409Z,5
2022-12-08T03:40:17.040Z,4
2022-12-08T03:45:16.246Z,4
2022-12-08T03:50:16.399Z,6
2022-12-08T03:55:16.234Z,6
2022-12-08T04:00:16.196Z,6
2022-12-08T04:05:16.227Z,6
2022-12-08T04:10:16.360Z,6
2022-12-08T04:15:16.316Z,8
2022-12-08T04:20:16.258Z,8
2022-12-08T04:25:16.675Z,7
2022-12-08T04:30:16.367Z,6
2022-12-08T04:35:16.473Z,5
2022-12-08T04:40:16.505Z,4
2022-12-08T04:45:16.522Z,6
2022-12-08T04:50:16.544Z,7
2022-12-08T04:55:16.578Z,7
2022-12-08T05:00:17.706Z,8
2022-12-08T05:05:16.557Z,5
2022-12-08T05:10:16.409Z,9
2022-12-08T05:15:17.163Z,10
2022-12-08T05:20:16.465Z,10
2022-12-08T05:25:16.730Z,8
2022-12-08T05:30:17.249Z,7
2022-12-08T05:35:16.471Z,7
2022-12-08T05:40:16.867Z,9
2022-12-08T05:45:16.492Z,11
2022-12-08T05:50:16.636Z,13
2022-12-08T05:55:16.921Z,17
2022-12-08T06:00:16.757Z,18
2022-12-08T06:05:16.583Z,19
2022-12-08T06:10:16.708Z,20
2022-12-08T06:15:16.681Z,19
2022-12-08T06:20:16.595Z,17
2022-12-08T06:25:16.633Z,18
2022-12-08T06:30:16.636Z,18
2022-12-08T06:35:16.858Z,18
2022-12-08T06:40:16.754Z,18
2022-12-08T06:45:16.755Z,20
2022-12-08T06:50:16.674Z,18
2022-12-08T06:55:35.419Z,17
2022-12-08T07:00:16.719Z,16
2022-12-08T07:05:16.873Z,16
2022-12-08T07:10:16.930Z,16
2022-12-08T07:15:16.792Z,17
2022-12-08T07:20:16.812Z,19
2022-12-08T07:25:16.905Z,18
2022-12-08T07:30:16.847Z,18
2022-12-08T07:35:16.683Z,17
2022-12-08T07:40:16.887Z,18
2022-12-08T07:45:16.784Z,19
2022-12-08T07:50:17.037Z,19
2022-12-08T07:55:16.886Z,18
2022-12-08T08:00:16.790Z,18
2022-12-08T08:05:16.823Z,19
2022-12-08T08:10:17.203Z,19
2022-12-08T08:15:16.975Z,18
2022-12-08T08:20:17.046Z,19
2022-12-08T08:25:16.918Z,18
2022-12-08T08:30:20.810Z,19
2022-12-08T08:35:16.850Z,18
2022-12-08T08:40:20.138Z,20
2022-12-08T08:45:16.821Z,20
2022-12-08T08:50:17.010Z,19
2022-12-08T08:55:17.613Z,19
2022-12-08T09:00:16.916Z,18
2022-12-08T09:05:17.074Z,18
2022-12-08T09:10:17.153Z,17
2022-12-08T09:15:16.939Z,16
2022-12-08T09:20:16.978Z,17
2022-12-08T09:25:17.266Z,18
2022-12-08T09:30:17.241Z,17
2022-12-08T09:35:16.950Z,15
2022-12-08T09:40:17.122Z,17
2022-12-08T09:45:17.062Z,18
2022-12-08T09:50:17.105Z,20
2022-12-08T09:55:17.206Z,19
2022-12-08T10:00:17.259Z,19
2022-12-08T10:05:17.382Z,20
2022-12-08T10:10:17.213Z,22
2022-12-08T10:15:17.088Z,19
2022-12-08T10:20:17.179Z,20
2022-12-08T10:25:17.222Z,18
2022-12-08T10:30:17.179Z,17
2022-12-08T10:35:17.775Z,17
2022-12-08T10:40:17.347Z,19
2022-12-08T10:45:17.578Z,19
2022-12-08T10:50:17.186Z,19
2022-12-08T10:55:17.372Z,21
2022-12-08T11:00:17.661Z,22
2022-12-08T11:05:17.395Z,24
2022-12-08T11:10:18.709Z,24
2022-12-08T11:15:17.221Z,24
2022-12-08T11:20:17.519Z,24
2022-12-08T11:25:17.342Z,24
2022-12-08T11:30:17.927Z,25
2022-12-08T11:35:17.270Z,26
2022-12-08T11:40:17.435Z,23
2022-12-08T11:45:17.626Z,24
2022-12-08T11:50:19.560Z,23
2022-12-08T11:55:17.497Z,24
2022-12-08T12:00:17.560Z,22
2022-12-08T12:05:33.258Z,20
2022-12-08T12:10:17.732Z,22
2022-12-08T12:15:17.402Z,21
2022-12-08T12:20:17.828Z,19
2022-12-08T12:25:17.551Z,21
2022-12-08T12:30:17.552Z,21
2022-12-08T12:35:18.066Z,20
2022-12-08T12:40:17.639Z,20
2022-12-08T12:45:17.584Z,19
2022-12-08T12:50:17.554Z,19
2022-12-08T12:55:17.888Z,18
2022-12-08T13:00:17.597Z,18
2022-12-08T13:05:18.297Z,23
2022-12-08T13:10:17.792Z,23
2022-12-08T13:15:17.703Z,20
2022-12-08T13:20:17.577Z,20
2022-12-08T13:25:17.557Z,22
2022-12-08T13:30:17.993Z,24
2022-12-08T13:35:17.597Z,23
2022-12-08T13:40:18.073Z,23
2022-12-08T13:45:27.972Z,22
2022-12-08T13:53:10.286Z,24
2022-12-08T13:56:37.269Z,24
2022-12-08T13:57:10.095Z,24
2022-12-08T14:00:17.775Z,25
2022-12-08T14:05:20.345Z,24
2022-12-08T14:10:17.729Z,23
2022-12-08T14:15:17.985Z,25
2022-12-08T14:20:18.031Z,25
2022-12-08T14:25:17.697Z,23
2022-12-08T14:30:17.733Z,24
2022-12-08T14:35:17.779Z,24
2022-12-08T14:40:22.725Z,23
2022-12-08T14:45:17.783Z,22
2022-12-08T14:50:17.834Z,23
2022-12-08T14:55:17.951Z,21
2022-12-08T15:00:18.019Z,21
2022-12-08T15:05:17.874Z,22
2022-12-08T15:10:17.922Z,23
2022-12-08T15:15:18.205Z,22
2022-12-08T15:20:17.934Z,23
2022-12-08T15:25:18.056Z,21
2022-12-08T15:30:17.948Z,22
2022-12-08T15:35:17.892Z,22
2022-12-08T15:40:18.095Z,22
2022-12-08T15:45:17.827Z,20
2022-12-08T15:50:18.039Z,21
2022-12-08T15:55:18.040Z,25
2022-12-08T16:00:43.689Z,24
2022-12-08T16:05:42.206Z,24
2022-12-08T16:10:18.259Z,24
2022-12-08T16:16:00.312Z,18
2022-12-08T16:20:18.037Z,19
2022-12-08T16:25:20.446Z,19
2022-12-08T16:30:18.291Z,17
2022-12-08T16:35:17.938Z,18
2022-12-08T16:40:18.129Z,19
2022-12-08T16:45:18.339Z,18
2022-12-08T16:50:18.135Z,17
2022-12-08T16:55:18.073Z,19
2022-12-08T17:00:18.421Z,19
2022-12-08T17:05:18.178Z,20
2022-12-08T17:10:18.435Z,21
2022-12-08T17:15:18.075Z,19
2022-12-08T17:20:18.231Z,21
2022-12-08T17:25:18.264Z,18
2022-12-08T17:30:18.086Z,20
2022-12-08T17:35:18.788Z,20
2022-12-08T17:40:16.313Z,21
2022-12-08T17:45:16.166Z,21
2022-12-08T17:50:16.139Z,19
2022-12-08T17:55:16.265Z,21
2022-12-08T18:00:16.383Z,19
2022-12-08T18:05:17.191Z,22
2022-12-08T18:10:16.659Z,19
2022-12-08T18:15:16.293Z,20
2022-12-08T18:20:16.298Z,22
2022-12-08T18:25:16.402Z,21
2022-12-08T18:30:16.405Z,20
2022-12-08T18:35:16.233Z,19
2022-12-08T18:40:16.617Z,20
2022-12-08T18:45:22.053Z,23
2022-12-08T18:50:16.397Z,22
2022-12-08T18:55:16.402Z,22
2022-12-08T19:00:16.368Z,20
2022-12-08T19:05:16.395Z,18
2022-12-08T19:10:16.764Z,18
2022-12-08T19:15:16.315Z,19
2022-12-08T19:20:16.552Z,21
2022-12-08T19:25:16.493Z,20
2022-12-08T19:30:16.529Z,23
2022-12-08T19:35:16.410Z,23
2022-12-08T19:40:16.667Z,22
2022-12-08T19:45:16.463Z,23
2022-12-08T19:50:16.917Z,21
2022-12-08T19:55:16.917Z,23
2022-12-08T20:00:17.297Z,22
2022-12-08T20:05:16.568Z,22
2022-12-08T20:10:16.664Z,22
2022-12-08T20:15:16.551Z,22
2022-12-08T20:20:16.809Z,23
2022-12-08T20:25:16.992Z,22
2022-12-08T20:30:17.554Z,19
2022-12-08T20:35:16.639Z,20
2022-12-08T20:40:16.745Z,19
2022-12-08T20:45:16.563Z,17
2022-12-08T20:50:16.893Z,18
2022-12-08T20:55:16.760Z,18
2022-12-08T21:00:17.050Z,17
2022-12-08T21:05:17.266Z,17
2022-12-08T21:10:16.833Z,18
2022-12-08T21:15:17.729Z,18
2022-12-08T21:20:17.786Z,16
2022-12-08T21:25:17.764Z,18
2022-12-08T21:30:17.884Z,18
2022-12-08T21:35:17.995Z,20
2022-12-08T21:40:17.973Z,16
2022-12-08T21:45:17.767Z,18
2022-12-08T21:50:18.083Z,18
2022-12-08T21:55:18.078Z,17
2022-12-08T22:00:19.257Z,16
2022-12-08T22:05:18.333Z,15
2022-12-08T22:10:18.453Z,17
2022-12-08T22:15:17.931Z,17
2022-12-08T22:20:18.060Z,17
2022-12-08T22:25:18.056Z,19
2022-12-08T22:30:18.036Z,21
2022-12-08T22:35:17.961Z,20
2022-12-08T22:40:18.017Z,20
2022-12-08T22:45:18.153Z,22
2022-12-08T22:50:18.043Z,20
2022-12-08T22:55:18.253Z,21
2022-12-08T23:00:18.087Z,23
2022-12-08T23:05:18.346Z,22
2022-12-08T23:10:18.315Z,23
2022-12-08T23:15:18.064Z,23
2022-12-08T23:20:18.188Z,24
2022-12-08T23:25:18.172Z,24
2022-12-08T23:30:18.172Z,24
2022-12-08T23:35:17.950Z,25
2022-12-08T23:40:18.721Z,25
2022-12-08T23:45:18.389Z,23
2022-12-08T23:50:18.278Z,24
2022-12-08T23:55:18.387Z,24
